sensor_id;sensor_type;location;lat;lon;timestamp;temperature;humidity
15983;DHT22;14442;50.196;8.096;2022-12-07T00:00:33;22.50;44.60
15983;DHT22;14442;50.196;8.096;2022-12-07T00:03:00;22.60;44.60
15983;DHT22;14442;50.196;8.096;2022-12-07T00:05:27;22.50;44.50
15983;DHT22;14442;50.196;8.096;2022-12-07T00:07:55;22.50;44.60
15983;DHT22;14442;50.196;8.096;2022-12-07T00:10:22;22.50;44.50
15983;DHT22;14442;50.196;8.096;2022-12-07T00:12:48;22.50;44.60
15983;DHT22;14442;50.196;8.096;2022-12-07T00:15:15;22.50;44.40
15983;DHT22;14442;50.196;8.096;2022-12-07T00:17:43;22.50;44.50
15983;DHT22;14442;50.196;8.096;2022-12-07T00:20:10;22.50;44.30
15983;DHT22;14442;50.196;8.096;2022-12-07T00:22:37;22.50;44.30
15983;DHT22;14442;50.196;8.096;2022-12-07T00:25:04;22.50;44.40
15983;DHT22;14442;50.196;8.096;2022-12-07T00:27:31;22.50;44.40
15983;DHT22;14442;50.196;8.096;2022-12-07T00:29:57;22.50;44.50
15983;DHT22;14442;50.196;8.096;2022-12-07T00:32:24;22.50;44.50
15983;DHT22;14442;50.196;8.096;2022-12-07T00:34:52;22.50;44.70
15983;DHT22;14442;50.196;8.096;2022-12-07T00:37:19;22.50;44.50
15983;DHT22;14442;50.196;8.096;2022-12-07T00:39:46;22.50;44.70
15983;DHT22;14442;50.196;8.096;2022-12-07T00:42:12;22.40;44.50
15983;DHT22;14442;50.196;8.096;2022-12-07T00:44:39;22.50;44.60
15983;DHT22;14442;50.196;8.096;2022-12-07T00:47:06;22.50;44.30
15983;DHT22;14442;50.196;8.096;2022-12-07T00:49:32;22.40;43.90
15983;DHT22;14442;50.196;8.096;2022-12-07T00:52:00;22.40;43.90
15983;DHT22;14442;50.196;8.096;2022-12-07T00:54:27;22.40;43.70
15983;DHT22;14442;50.196;8.096;2022-12-07T00:56:54;22.30;43.40
15983;DHT22;14442;50.196;8.096;2022-12-07T00:59:20;22.30;43.30
15983;DHT22;14442;50.196;8.096;2022-12-07T01:01:47;22.30;43.40
15983;DHT22;14442;50.196;8.096;2022-12-07T01:04:14;22.20;43.30
15983;DHT22;14442;50.196;8.096;2022-12-07T01:06:40;22.20;43.40
15983;DHT22;14442;50.196;8.096;2022-12-07T01:09:08;22.20;43.30
15983;DHT22;14442;50.196;8.096;2022-12-07T01:11:35;22.20;43.30
15983;DHT22;14442;50.196;8.096;2022-12-07T01:14:02;22.20;43.30
15983;DHT22;14442;50.196;8.096;2022-12-07T01:16:31;22.20;43.20
15983;DHT22;14442;50.196;8.096;2022-12-07T01:18:59;22.20;43.10
15983;DHT22;14442;50.196;8.096;2022-12-07T01:21:28;22.10;43.10
15983;DHT22;14442;50.196;8.096;2022-12-07T01:23:57;22.10;43.10
15983;DHT22;14442;50.196;8.096;2022-12-07T01:26:25;22.10;43.00
15983;DHT22;14442;50.196;8.096;2022-12-07T01:28:52;22.10;43.00
15983;DHT22;14442;50.196;8.096;2022-12-07T01:31:22;22.10;43.00
15983;DHT22;14442;50.196;8.096;2022-12-07T01:33:55;22.10;42.90
15983;DHT22;14442;50.196;8.096;2022-12-07T01:36:24;22.10;42.90
15983;DHT22;14442;50.196;8.096;2022-12-07T01:38:53;22.10;42.80
15983;DHT22;14442;50.196;8.096;2022-12-07T01:41:22;22.10;42.80
15983;DHT22;14442;50.196;8.096;2022-12-07T01:44:16;22.10;42.90
15983;DHT22;14442;50.196;8.096;2022-12-07T01:46:44;22.10;42.80
15983;DHT22;14442;50.196;8.096;2022-12-07T01:49:16;22.10;42.80
15983;DHT22;14442;50.196;8.096;2022-12-07T01:51:43;22.10;42.70
15983;DHT22;14442;50.196;8.096;2022-12-07T01:54:12;22.10;42.70
15983;DHT22;14442;50.196;8.096;2022-12-07T01:56:40;22.10;42.60
15983;DHT22;14442;50.196;8.096;2022-12-07T01:59:08;22.10;42.50
15983;DHT22;14442;50.196;8.096;2022-12-07T02:01:36;22.20;42.50
15983;DHT22;14442;50.196;8.096;2022-12-07T02:04:03;22.20;42.50
15983;DHT22;14442;50.196;8.096;2022-12-07T02:06:30;22.20;42.40
15983;DHT22;14442;50.196;8.096;2022-12-07T02:08:56;22.20;42.30
15983;DHT22;14442;50.196;8.096;2022-12-07T02:11:23;22.20;42.30
15983;DHT22;14442;50.196;8.096;2022-12-07T02:13:50;22.20;42.20
15983;DHT22;14442;50.196;8.096;2022-12-07T02:16:26;22.30;42.20
15983;DHT22;14442;50.196;8.096;2022-12-07T02:19:12;22.20;42.10
15983;DHT22;14442;50.196;8.096;2022-12-07T02:21:47;22.30;42.10
15983;DHT22;14442;50.196;8.096;2022-12-07T02:24:45;22.30;42.10
15983;DHT22;14442;50.196;8.096;2022-12-07T02:27:37;22.30;42.10
15983;DHT22;14442;50.196;8.096;2022-12-07T02:30:08;22.30;42.10
15983;DHT22;14442;50.196;8.096;2022-12-07T02:32:42;22.30;42.10
15983;DHT22;14442;50.196;8.096;2022-12-07T02:35:12;22.30;42.00
15983;DHT22;14442;50.196;8.096;2022-12-07T02:37:46;22.30;42.00
15983;DHT22;14442;50.196;8.096;2022-12-07T02:40:18;22.30;42.00
15983;DHT22;14442;50.196;8.096;2022-12-07T02:42:48;22.30;41.90
15983;DHT22;14442;50.196;8.096;2022-12-07T02:45:21;22.30;41.90
15983;DHT22;14442;50.196;8.096;2022-12-07T02:47:51;22.40;42.00
15983;DHT22;14442;50.196;8.096;2022-12-07T02:50:19;22.30;41.90
15983;DHT22;14442;50.196;8.096;2022-12-07T02:52:46;22.40;41.90
15983;DHT22;14442;50.196;8.096;2022-12-07T02:55:15;22.40;41.90
15983;DHT22;14442;50.196;8.096;2022-12-07T03:00:48;22.40;41.90
15983;DHT22;14442;50.196;8.096;2022-12-07T03:03:18;22.40;41.80
15983;DHT22;14442;50.196;8.096;2022-12-07T03:06:06;22.40;41.80
15983;DHT22;14442;50.196;8.096;2022-12-07T03:08:44;22.40;41.80
15983;DHT22;14442;50.196;8.096;2022-12-07T03:11:14;22.40;41.70
15983;DHT22;14442;50.196;8.096;2022-12-07T03:13:48;22.40;41.80
15983;DHT22;14442;50.196;8.096;2022-12-07T03:16:19;22.40;41.70
15983;DHT22;14442;50.196;8.096;2022-12-07T03:18:49;22.40;41.70
15983;DHT22;14442;50.196;8.096;2022-12-07T03:21:19;22.40;41.70
15983;DHT22;14442;50.196;8.096;2022-12-07T03:23:50;22.50;41.80
15983;DHT22;14442;50.196;8.096;2022-12-07T03:26:19;22.50;41.80
15983;DHT22;14442;50.196;8.096;2022-12-07T03:28:53;22.50;41.70
15983;DHT22;14442;50.196;8.096;2022-12-07T03:31:26;22.50;41.70
15983;DHT22;14442;50.196;8.096;2022-12-07T03:34:01;22.50;41.80
15983;DHT22;14442;50.196;8.096;2022-12-07T03:36:31;22.50;41.80
15983;DHT22;14442;50.196;8.096;2022-12-07T03:39:04;22.50;41.80
15983;DHT22;14442;50.196;8.096;2022-12-07T03:41:35;22.50;41.80
15983;DHT22;14442;50.196;8.096;2022-12-07T03:44:02;22.50;41.80
15983;DHT22;14442;50.196;8.096;2022-12-07T03:46:37;22.50;41.70
15983;DHT22;14442;50.196;8.096;2022-12-07T03:49:13;22.40;41.70
15983;DHT22;14442;50.196;8.096;2022-12-07T03:51:48;22.40;42.40
15983;DHT22;14442;50.196;8.096;2022-12-07T03:54:18;22.50;41.80
15983;DHT22;14442;50.196;8.096;2022-12-07T03:56:46;22.50;41.80
15983;DHT22;14442;50.196;8.096;2022-12-07T03:59:14;22.40;41.70
15983;DHT22;14442;50.196;8.096;2022-12-07T04:01:43;22.40;41.70
15983;DHT22;14442;50.196;8.096;2022-12-07T04:04:10;22.40;41.80
15983;DHT22;14442;50.196;8.096;2022-12-07T04:06:37;22.40;41.80
15983;DHT22;14442;50.196;8.096;2022-12-07T04:09:04;22.40;41.80
15983;DHT22;14442;50.196;8.096;2022-12-07T04:11:31;22.40;41.80
15983;DHT22;14442;50.196;8.096;2022-12-07T04:13:57;22.40;41.90
15983;DHT22;14442;50.196;8.096;2022-12-07T04:16:43;22.40;41.80
15983;DHT22;14442;50.196;8.096;2022-12-07T04:19:09;22.40;41.90
15983;DHT22;14442;50.196;8.096;2022-12-07T04:21:36;22.40;41.90
15983;DHT22;14442;50.196;8.096;2022-12-07T04:24:03;22.30;41.80
15983;DHT22;14442;50.196;8.096;2022-12-07T04:26:30;22.30;41.90
15983;DHT22;14442;50.196;8.096;2022-12-07T04:28:57;22.30;41.90
15983;DHT22;14442;50.196;8.096;2022-12-07T04:31:23;22.30;41.90
15983;DHT22;14442;50.196;8.096;2022-12-07T04:33:51;22.30;41.90
15983;DHT22;14442;50.196;8.096;2022-12-07T04:36:18;22.30;41.90
15983;DHT22;14442;50.196;8.096;2022-12-07T04:38:45;22.30;41.90
15983;DHT22;14442;50.196;8.096;2022-12-07T04:41:12;22.20;41.80
15983;DHT22;14442;50.196;8.096;2022-12-07T04:43:39;22.20;41.80
15983;DHT22;14442;50.196;8.096;2022-12-07T04:46:05;22.30;41.90
15983;DHT22;14442;50.196;8.096;2022-12-07T04:48:32;22.20;41.80
15983;DHT22;14442;50.196;8.096;2022-12-07T04:51:01;22.20;41.90
15983;DHT22;14442;50.196;8.096;2022-12-07T04:53:28;22.20;41.90
15983;DHT22;14442;50.196;8.096;2022-12-07T04:55:55;22.20;41.90
15983;DHT22;14442;50.196;8.096;2022-12-07T04:58:21;22.20;41.90
15983;DHT22;14442;50.196;8.096;2022-12-07T05:00:48;22.20;41.90
15983;DHT22;14442;50.196;8.096;2022-12-07T05:03:15;22.20;41.90
15983;DHT22;14442;50.196;8.096;2022-12-07T05:05:41;22.20;42.00
15983;DHT22;14442;50.196;8.096;2022-12-07T05:08:09;22.20;42.00
15983;DHT22;14442;50.196;8.096;2022-12-07T05:10:36;22.10;41.90
15983;DHT22;14442;50.196;8.096;2022-12-07T05:13:03;22.10;41.90
15983;DHT22;14442;50.196;8.096;2022-12-07T05:15:29;22.10;41.90
15983;DHT22;14442;50.196;8.096;2022-12-07T05:17:56;22.20;42.00
15983;DHT22;14442;50.196;8.096;2022-12-07T05:20:22;22.10;42.00
15983;DHT22;14442;50.196;8.096;2022-12-07T05:22:49;22.10;42.00
15983;DHT22;14442;50.196;8.096;2022-12-07T05:25:17;22.00;41.90
15983;DHT22;14442;50.196;8.096;2022-12-07T05:27:44;22.00;42.00
15983;DHT22;14442;50.196;8.096;2022-12-07T05:30:11;22.00;42.00
15983;DHT22;14442;50.196;8.096;2022-12-07T05:32:38;22.00;42.00
15983;DHT22;14442;50.196;8.096;2022-12-07T05:35:05;22.00;42.00
15983;DHT22;14442;50.196;8.096;2022-12-07T05:37:32;22.00;42.00
15983;DHT22;14442;50.196;8.096;2022-12-07T05:39:59;22.00;42.00
15983;DHT22;14442;50.196;8.096;2022-12-07T05:42:27;22.00;42.00
15983;DHT22;14442;50.196;8.096;2022-12-07T05:44:54;22.00;42.00
15983;DHT22;14442;50.196;8.096;2022-12-07T05:47:20;22.00;42.00
15983;DHT22;14442;50.196;8.096;2022-12-07T05:49:47;22.00;42.00
15983;DHT22;14442;50.196;8.096;2022-12-07T05:52:14;22.00;42.10
15983;DHT22;14442;50.196;8.096;2022-12-07T05:54:40;21.90;42.00
15983;DHT22;14442;50.196;8.096;2022-12-07T05:57:07;21.90;42.00
15983;DHT22;14442;50.196;8.096;2022-12-07T05:59:35;21.90;42.00
15983;DHT22;14442;50.196;8.096;2022-12-07T06:02:03;21.90;42.00
15983;DHT22;14442;50.196;8.096;2022-12-07T06:04:32;21.90;42.00
15983;DHT22;14442;50.196;8.096;2022-12-07T06:06:59;21.90;42.00
15983;DHT22;14442;50.196;8.096;2022-12-07T06:09:27;21.90;42.00
15983;DHT22;14442;50.196;8.096;2022-12-07T06:11:55;21.80;41.90
15983;DHT22;14442;50.196;8.096;2022-12-07T06:14:41;21.90;42.00
15983;DHT22;14442;50.196;8.096;2022-12-07T06:17:08;21.80;42.00
15983;DHT22;14442;50.196;8.096;2022-12-07T06:19:35;21.80;42.00
15983;DHT22;14442;50.196;8.096;2022-12-07T06:22:02;21.80;42.00
15983;DHT22;14442;50.196;8.096;2022-12-07T06:24:30;21.80;42.00
15983;DHT22;14442;50.196;8.096;2022-12-07T06:26:57;21.80;42.00
15983;DHT22;14442;50.196;8.096;2022-12-07T06:29:24;21.80;42.00
15983;DHT22;14442;50.196;8.096;2022-12-07T06:31:52;21.80;42.10
15983;DHT22;14442;50.196;8.096;2022-12-07T06:34:20;21.80;42.20
15983;DHT22;14442;50.196;8.096;2022-12-07T06:36:48;21.80;42.20
15983;DHT22;14442;50.196;8.096;2022-12-07T06:39:17;21.80;42.20
15983;DHT22;14442;50.196;8.096;2022-12-07T06:41:44;21.70;42.10
15983;DHT22;14442;50.196;8.096;2022-12-07T06:44:11;21.70;42.20
15983;DHT22;14442;50.196;8.096;2022-12-07T06:46:37;21.70;42.20
15983;DHT22;14442;50.196;8.096;2022-12-07T06:49:05;21.70;42.20
15983;DHT22;14442;50.196;8.096;2022-12-07T06:51:33;21.70;42.30
15983;DHT22;14442;50.196;8.096;2022-12-07T06:54:00;21.60;42.30
15983;DHT22;14442;50.196;8.096;2022-12-07T06:56:27;21.60;42.40
15983;DHT22;14442;50.196;8.096;2022-12-07T06:58:54;21.60;42.60
15983;DHT22;14442;50.196;8.096;2022-12-07T07:01:20;21.60;42.60
15983;DHT22;14442;50.196;8.096;2022-12-07T07:03:47;21.60;42.60
15983;DHT22;14442;50.196;8.096;2022-12-07T07:06:15;21.50;42.60
15983;DHT22;14442;50.196;8.096;2022-12-07T07:08:42;21.50;42.70
15983;DHT22;14442;50.196;8.096;2022-12-07T07:11:09;21.50;42.70
15983;DHT22;14442;50.196;8.096;2022-12-07T07:13:36;21.50;42.70
15983;DHT22;14442;50.196;8.096;2022-12-07T07:16:04;21.50;42.80
15983;DHT22;14442;50.196;8.096;2022-12-07T07:18:31;21.50;42.60
15983;DHT22;14442;50.196;8.096;2022-12-07T07:20:58;21.50;42.70
15983;DHT22;14442;50.196;8.096;2022-12-07T07:23:26;21.50;42.80
15983;DHT22;14442;50.196;8.096;2022-12-07T07:25:53;21.50;42.80
15983;DHT22;14442;50.196;8.096;2022-12-07T07:28:19;21.50;42.70
15983;DHT22;14442;50.196;8.096;2022-12-07T07:30:46;21.50;42.60
15983;DHT22;14442;50.196;8.096;2022-12-07T07:33:13;21.60;42.60
15983;DHT22;14442;50.196;8.096;2022-12-07T07:35:40;21.60;42.50
15983;DHT22;14442;50.196;8.096;2022-12-07T07:38:07;21.60;42.50
15983;DHT22;14442;50.196;8.096;2022-12-07T07:40:35;21.60;42.40
15983;DHT22;14442;50.196;8.096;2022-12-07T07:43:02;21.60;42.40
15983;DHT22;14442;50.196;8.096;2022-12-07T07:45:29;21.70;42.30
15983;DHT22;14442;50.196;8.096;2022-12-07T07:47:55;21.70;42.30
15983;DHT22;14442;50.196;8.096;2022-12-07T07:50:22;21.80;42.30
15983;DHT22;14442;50.196;8.096;2022-12-07T07:52:49;21.80;42.20
15983;DHT22;14442;50.196;8.096;2022-12-07T07:55:16;21.80;42.20
15983;DHT22;14442;50.196;8.096;2022-12-07T07:57:44;21.80;42.10
15983;DHT22;14442;50.196;8.096;2022-12-07T08:00:13;21.80;42.10
15983;DHT22;14442;50.196;8.096;2022-12-07T08:02:40;21.90;42.20
15983;DHT22;14442;50.196;8.096;2022-12-07T08:05:09;21.90;42.20
15983;DHT22;14442;50.196;8.096;2022-12-07T08:07:35;22.00;42.30
15983;DHT22;14442;50.196;8.096;2022-12-07T08:10:02;22.00;42.30
15983;DHT22;14442;50.196;8.096;2022-12-07T08:12:29;22.00;42.40
15983;DHT22;14442;50.196;8.096;2022-12-07T08:14:57;22.10;42.70
15983;DHT22;14442;50.196;8.096;2022-12-07T08:17:24;22.10;42.90
15983;DHT22;14442;50.196;8.096;2022-12-07T08:19:51;22.10;43.00
15983;DHT22;14442;50.196;8.096;2022-12-07T08:22:17;22.10;43.20
15983;DHT22;14442;50.196;8.096;2022-12-07T08:24:44;22.10;43.20
15983;DHT22;14442;50.196;8.096;2022-12-07T08:27:11;22.10;43.20
15983;DHT22;14442;50.196;8.096;2022-12-07T08:29:38;22.10;43.30
15983;DHT22;14442;50.196;8.096;2022-12-07T08:32:06;22.10;43.30
15983;DHT22;14442;50.196;8.096;2022-12-07T08:34:32;22.10;43.20
15983;DHT22;14442;50.196;8.096;2022-12-07T08:36:59;22.10;43.10
15983;DHT22;14442;50.196;8.096;2022-12-07T08:39:26;22.20;43.10
15983;DHT22;14442;50.196;8.096;2022-12-07T08:41:52;22.10;43.00
15983;DHT22;14442;50.196;8.096;2022-12-07T08:44:19;22.20;43.00
15983;DHT22;14442;50.196;8.096;2022-12-07T08:46:49;22.20;43.00
15983;DHT22;14442;50.196;8.096;2022-12-07T08:49:21;22.30;43.00
15983;DHT22;14442;50.196;8.096;2022-12-07T08:51:49;22.30;43.00
15983;DHT22;14442;50.196;8.096;2022-12-07T08:54:17;22.30;42.90
15983;DHT22;14442;50.196;8.096;2022-12-07T08:56:45;22.30;42.90
15983;DHT22;14442;50.196;8.096;2022-12-07T08:59:14;22.30;42.90
15983;DHT22;14442;50.196;8.096;2022-12-07T09:01:42;22.20;42.80
15983;DHT22;14442;50.196;8.096;2022-12-07T09:04:08;22.30;42.80
15983;DHT22;14442;50.196;8.096;2022-12-07T09:06:37;22.30;42.80
15983;DHT22;14442;50.196;8.096;2022-12-07T09:09:04;22.30;42.80
15983;DHT22;14442;50.196;8.096;2022-12-07T09:11:32;22.30;42.80
15983;DHT22;14442;50.196;8.096;2022-12-07T09:13:59;22.30;43.10
15983;DHT22;14442;50.196;8.096;2022-12-07T09:16:25;22.30;42.70
15983;DHT22;14442;50.196;8.096;2022-12-07T09:18:52;22.30;42.70
15983;DHT22;14442;50.196;8.096;2022-12-07T09:21:19;22.30;42.70
15983;DHT22;14442;50.196;8.096;2022-12-07T09:23:47;22.30;42.80
15983;DHT22;14442;50.196;8.096;2022-12-07T09:26:13;22.30;42.80
15983;DHT22;14442;50.196;8.096;2022-12-07T09:28:40;22.30;42.80
15983;DHT22;14442;50.196;8.096;2022-12-07T09:31:06;22.20;42.70
15983;DHT22;14442;50.196;8.096;2022-12-07T09:33:33;22.30;42.80
15983;DHT22;14442;50.196;8.096;2022-12-07T09:36:00;22.30;42.80
15983;DHT22;14442;50.196;8.096;2022-12-07T09:38:27;22.30;42.70
15983;DHT22;14442;50.196;8.096;2022-12-07T09:40:56;22.20;42.70
15983;DHT22;14442;50.196;8.096;2022-12-07T09:43:24;22.20;42.60
15983;DHT22;14442;50.196;8.096;2022-12-07T09:45:53;22.20;42.70
15983;DHT22;14442;50.196;8.096;2022-12-07T09:48:22;22.30;42.80
15983;DHT22;14442;50.196;8.096;2022-12-07T09:50:52;22.20;42.60
15983;DHT22;14442;50.196;8.096;2022-12-07T09:53:25;22.20;42.60
15983;DHT22;14442;50.196;8.096;2022-12-07T09:55:53;22.20;42.60
15983;DHT22;14442;50.196;8.096;2022-12-07T09:58:23;22.20;42.70
15983;DHT22;14442;50.196;8.096;2022-12-07T10:00:53;22.20;42.70
15983;DHT22;14442;50.196;8.096;2022-12-07T10:03:22;22.20;42.70
15983;DHT22;14442;50.196;8.096;2022-12-07T10:05:51;22.20;42.60
15983;DHT22;14442;50.196;8.096;2022-12-07T10:08:18;22.20;42.70
15983;DHT22;14442;50.196;8.096;2022-12-07T10:10:50;22.20;42.70
15983;DHT22;14442;50.196;8.096;2022-12-07T10:13:20;22.20;42.90
15983;DHT22;14442;50.196;8.096;2022-12-07T10:15:51;22.20;42.90
15983;DHT22;14442;50.196;8.096;2022-12-07T10:18:21;22.10;42.90
15983;DHT22;14442;50.196;8.096;2022-12-07T10:21:11;22.10;43.00
15983;DHT22;14442;50.196;8.096;2022-12-07T10:23:39;22.20;43.00
15983;DHT22;14442;50.196;8.096;2022-12-07T10:26:29;22.10;43.00
15983;DHT22;14442;50.196;8.096;2022-12-07T10:28:59;22.20;43.20
15983;DHT22;14442;50.196;8.096;2022-12-07T10:31:28;22.10;43.20
15983;DHT22;14442;50.196;8.096;2022-12-07T10:33:56;22.10;43.30
15983;DHT22;14442;50.196;8.096;2022-12-07T10:36:25;22.10;43.30
15983;DHT22;14442;50.196;8.096;2022-12-07T10:38:59;22.10;43.40
15983;DHT22;14442;50.196;8.096;2022-12-07T10:41:26;22.20;43.60
15983;DHT22;14442;50.196;8.096;2022-12-07T10:43:54;22.20;43.50
15983;DHT22;14442;50.196;8.096;2022-12-07T10:46:52;22.20;43.60
15983;DHT22;14442;50.196;8.096;2022-12-07T10:49:39;22.20;43.80
15983;DHT22;14442;50.196;8.096;2022-12-07T10:52:18;22.10;43.80
15983;DHT22;14442;50.196;8.096;2022-12-07T10:54:53;22.10;43.80
15983;DHT22;14442;50.196;8.096;2022-12-07T10:57:38;22.20;43.90
15983;DHT22;14442;50.196;8.096;2022-12-07T11:00:15;22.10;44.30
15983;DHT22;14442;50.196;8.096;2022-12-07T11:03:06;22.20;43.90
15983;DHT22;14442;50.196;8.096;2022-12-07T11:05:43;22.20;43.90
15983;DHT22;14442;50.196;8.096;2022-12-07T11:08:18;22.20;43.90
15983;DHT22;14442;50.196;8.096;2022-12-07T11:10:52;22.20;43.90
15983;DHT22;14442;50.196;8.096;2022-12-07T11:13:29;22.20;43.90
15983;DHT22;14442;50.196;8.096;2022-12-07T11:16:07;22.20;44.40
15983;DHT22;14442;50.196;8.096;2022-12-07T11:18:46;22.20;43.80
15983;DHT22;14442;50.196;8.096;2022-12-07T11:21:20;22.30;43.80
15983;DHT22;14442;50.196;8.096;2022-12-07T11:23:59;22.30;43.80
15983;DHT22;14442;50.196;8.096;2022-12-07T11:26:39;22.30;43.80
15983;DHT22;14442;50.196;8.096;2022-12-07T11:29:28;22.40;43.80
15983;DHT22;14442;50.196;8.096;2022-12-07T11:32:04;22.40;43.70
15983;DHT22;14442;50.196;8.096;2022-12-07T11:34:42;22.40;43.60
15983;DHT22;14442;50.196;8.096;2022-12-07T11:37:15;22.40;43.50
15983;DHT22;14442;50.196;8.096;2022-12-07T11:39:48;22.50;43.40
15983;DHT22;14442;50.196;8.096;2022-12-07T11:42:22;22.60;43.30
15983;DHT22;14442;50.196;8.096;2022-12-07T11:44:53;22.60;43.30
15983;DHT22;14442;50.196;8.096;2022-12-07T11:47:27;22.60;44.00
15983;DHT22;14442;50.196;8.096;2022-12-07T11:50:03;22.60;44.30
15983;DHT22;14442;50.196;8.096;2022-12-07T11:52:39;22.60;44.40
15983;DHT22;14442;50.196;8.096;2022-12-07T11:55:18;22.60;44.40
15983;DHT22;14442;50.196;8.096;2022-12-07T11:57:50;22.60;44.30
15983;DHT22;14442;50.196;8.096;2022-12-07T12:00:19;22.60;44.30
15983;DHT22;14442;50.196;8.096;2022-12-07T12:02:51;22.60;44.30
15983;DHT22;14442;50.196;8.096;2022-12-07T12:05:22;22.60;44.50
15983;DHT22;14442;50.196;8.096;2022-12-07T12:07:55;22.60;44.30
15983;DHT22;14442;50.196;8.096;2022-12-07T12:10:37;22.60;44.10
15983;DHT22;14442;50.196;8.096;2022-12-07T12:13:31;22.70;44.20
15983;DHT22;14442;50.196;8.096;2022-12-07T12:16:20;22.70;44.20
15983;DHT22;14442;50.196;8.096;2022-12-07T12:18:57;22.70;44.10
15983;DHT22;14442;50.196;8.096;2022-12-07T12:21:28;22.70;44.20
15983;DHT22;14442;50.196;8.096;2022-12-07T12:23:58;22.70;44.20
15983;DHT22;14442;50.196;8.096;2022-12-07T12:26:27;22.60;44.10
15983;DHT22;14442;50.196;8.096;2022-12-07T12:28:58;22.70;44.60
15983;DHT22;14442;50.196;8.096;2022-12-07T12:31:37;22.70;44.60
15983;DHT22;14442;50.196;8.096;2022-12-07T12:34:31;22.70;44.50
15983;DHT22;14442;50.196;8.096;2022-12-07T12:36:59;22.70;44.60
15983;DHT22;14442;50.196;8.096;2022-12-07T12:39:26;22.70;44.60
15983;DHT22;14442;50.196;8.096;2022-12-07T12:41:55;22.70;44.50
15983;DHT22;14442;50.196;8.096;2022-12-07T12:47:52;22.80;44.70
15983;DHT22;14442;50.196;8.096;2022-12-07T12:50:21;22.80;44.70
15983;DHT22;14442;50.196;8.096;2022-12-07T12:53:00;22.70;44.80
15983;DHT22;14442;50.196;8.096;2022-12-07T12:55:49;22.70;44.60
15983;DHT22;14442;50.196;8.096;2022-12-07T12:58:38;22.70;44.50
15983;DHT22;14442;50.196;8.096;2022-12-07T13:01:41;22.70;45.60
15983;DHT22;14442;50.196;8.096;2022-12-07T13:04:27;22.80;46.00
15983;DHT22;14442;50.196;8.096;2022-12-07T13:06:56;22.80;46.60
15983;DHT22;14442;50.196;8.096;2022-12-07T13:09:26;22.80;47.00
15983;DHT22;14442;50.196;8.096;2022-12-07T13:12:00;22.80;46.40
15983;DHT22;14442;50.196;8.096;2022-12-07T13:14:42;22.70;45.60
15983;DHT22;14442;50.196;8.096;2022-12-07T13:17:10;22.70;46.30
15983;DHT22;14442;50.196;8.096;2022-12-07T13:19:58;22.70;46.80
15983;DHT22;14442;50.196;8.096;2022-12-07T13:22:51;22.70;46.80
15983;DHT22;14442;50.196;8.096;2022-12-07T13:25:33;22.70;46.50
15983;DHT22;14442;50.196;8.096;2022-12-07T13:28:09;22.70;46.50
15983;DHT22;14442;50.196;8.096;2022-12-07T13:30:47;22.70;45.90
15983;DHT22;14442;50.196;8.096;2022-12-07T13:33:17;22.70;44.70
15983;DHT22;14442;50.196;8.096;2022-12-07T13:35:45;22.70;43.80
15983;DHT22;14442;50.196;8.096;2022-12-07T13:38:25;22.80;43.80
15983;DHT22;14442;50.196;8.096;2022-12-07T13:41:10;22.70;43.70
15983;DHT22;14442;50.196;8.096;2022-12-07T13:43:43;22.60;43.70
15983;DHT22;14442;50.196;8.096;2022-12-07T13:46:11;22.60;44.10
15983;DHT22;14442;50.196;8.096;2022-12-07T13:48:45;22.60;44.30
15983;DHT22;14442;50.196;8.096;2022-12-07T13:51:18;22.60;44.30
15983;DHT22;14442;50.196;8.096;2022-12-07T13:53:46;22.60;44.10
15983;DHT22;14442;50.196;8.096;2022-12-07T13:56:15;22.50;44.00
15983;DHT22;14442;50.196;8.096;2022-12-07T13:58:42;22.50;43.60
15983;DHT22;14442;50.196;8.096;2022-12-07T14:01:10;22.50;43.40
15983;DHT22;14442;50.196;8.096;2022-12-07T14:03:39;22.50;43.30
15983;DHT22;14442;50.196;8.096;2022-12-07T14:06:19;22.50;43.30
15983;DHT22;14442;50.196;8.096;2022-12-07T14:08:46;22.50;43.20
15983;DHT22;14442;50.196;8.096;2022-12-07T14:11:17;22.50;43.10
15983;DHT22;14442;50.196;8.096;2022-12-07T14:13:51;22.50;43.20
15983;DHT22;14442;50.196;8.096;2022-12-07T14:16:25;22.50;43.10
15983;DHT22;14442;50.196;8.096;2022-12-07T14:18:53;22.40;43.10
15983;DHT22;14442;50.196;8.096;2022-12-07T14:21:22;22.50;43.10
15983;DHT22;14442;50.196;8.096;2022-12-07T14:24:14;22.50;43.10
15983;DHT22;14442;50.196;8.096;2022-12-07T14:26:44;22.40;43.10
15983;DHT22;14442;50.196;8.096;2022-12-07T14:29:30;22.40;43.10
15983;DHT22;14442;50.196;8.096;2022-12-07T14:31:59;22.40;43.10
15983;DHT22;14442;50.196;8.096;2022-12-07T14:34:30;22.40;43.10
15983;DHT22;14442;50.196;8.096;2022-12-07T14:36:57;22.40;43.10
15983;DHT22;14442;50.196;8.096;2022-12-07T14:39:24;22.40;43.10
15983;DHT22;14442;50.196;8.096;2022-12-07T14:41:52;22.40;43.10
15983;DHT22;14442;50.196;8.096;2022-12-07T14:44:19;22.40;43.10
15983;DHT22;14442;50.196;8.096;2022-12-07T14:46:46;22.30;43.00
15983;DHT22;14442;50.196;8.096;2022-12-07T14:49:13;22.30;43.00
15983;DHT22;14442;50.196;8.096;2022-12-07T14:51:40;22.30;43.00
15983;DHT22;14442;50.196;8.096;2022-12-07T14:54:15;22.30;43.00
15983;DHT22;14442;50.196;8.096;2022-12-07T14:56:42;22.30;43.00
15983;DHT22;14442;50.196;8.096;2022-12-07T14:59:11;22.30;43.00
15983;DHT22;14442;50.196;8.096;2022-12-07T15:01:38;22.20;42.90
15983;DHT22;14442;50.196;8.096;2022-12-07T15:04:04;22.20;42.90
15983;DHT22;14442;50.196;8.096;2022-12-07T15:06:31;22.20;42.90
15983;DHT22;14442;50.196;8.096;2022-12-07T15:08:58;22.20;42.90
15983;DHT22;14442;50.196;8.096;2022-12-07T15:11:25;22.20;43.00
15983;DHT22;14442;50.196;8.096;2022-12-07T15:13:51;22.20;43.00
15983;DHT22;14442;50.196;8.096;2022-12-07T15:16:40;22.10;43.00
15983;DHT22;14442;50.196;8.096;2022-12-07T15:19:12;22.10;43.00
15983;DHT22;14442;50.196;8.096;2022-12-07T15:21:40;22.10;43.00
15983;DHT22;14442;50.196;8.096;2022-12-07T15:24:08;22.10;43.00
15983;DHT22;14442;50.196;8.096;2022-12-07T15:26:35;22.10;43.00
15983;DHT22;14442;50.196;8.096;2022-12-07T15:29:02;22.10;43.10
15983;DHT22;14442;50.196;8.096;2022-12-07T15:31:29;22.10;43.00
15983;DHT22;14442;50.196;8.096;2022-12-07T15:33:57;22.00;43.00
15983;DHT22;14442;50.196;8.096;2022-12-07T15:36:26;22.00;43.60
15983;DHT22;14442;50.196;8.096;2022-12-07T15:38:53;22.00;43.10
15983;DHT22;14442;50.196;8.096;2022-12-07T15:41:20;22.00;43.20
15983;DHT22;14442;50.196;8.096;2022-12-07T15:43:47;22.00;43.00
15983;DHT22;14442;50.196;8.096;2022-12-07T15:46:32;21.90;43.00
15983;DHT22;14442;50.196;8.096;2022-12-07T15:49:01;22.00;43.00
15983;DHT22;14442;50.196;8.096;2022-12-07T15:51:27;22.00;42.90
15983;DHT22;14442;50.196;8.096;2022-12-07T15:53:54;22.00;42.80
15983;DHT22;14442;50.196;8.096;2022-12-07T15:56:21;22.10;42.80